createdAt,value
2019-04-30T00:01:55.871Z,50.63
2019-04-30T00:04:34.589Z,42.17
2019-04-30T00:07:02.222Z,45.57
2019-04-30T00:09:32.796Z,42.57
2019-04-30T00:12:03.294Z,42.33
2019-04-30T00:14:38.615Z,44.43
2019-04-30T00:17:06.331Z,41.70
2019-04-30T00:19:36.970Z,45.27
2019-04-30T00:22:08.774Z,39.83
2019-04-30T00:24:39.875Z,48.87
2019-04-30T00:27:11.266Z,43.43
2019-04-30T00:29:41.671Z,41.30
2019-04-30T00:32:12.190Z,45.37
2019-04-30T00:34:42.603Z,44.80
2019-04-30T00:37:14.265Z,44.83
2019-04-30T00:39:51.142Z,47.40
2019-04-30T00:42:23.975Z,48.20
2019-04-30T00:44:49.685Z,51.10
2019-04-30T00:47:21.413Z,44.37
2019-04-30T00:49:56.319Z,49.77
2019-04-30T00:52:25.283Z,51.03
2019-04-30T00:54:56.249Z,45.00
2019-04-30T00:57:26.674Z,48.60
2019-04-30T00:59:58.170Z,45.90
2019-04-30T01:02:45.542Z,53.87
2019-04-30T01:05:17.936Z,50.27
2019-04-30T01:07:51.688Z,49.33
2019-04-30T01:10:24.738Z,47.90
2019-04-30T01:12:52.327Z,50.03
2019-04-30T01:15:22.597Z,57.63
2019-04-30T01:17:55.135Z,51.50
2019-04-30T01:20:31.395Z,57.80
2019-04-30T01:22:58.763Z,50.97
2019-04-30T01:25:29.591Z,47.73
2019-04-30T01:28:01.580Z,52.30
2019-04-30T01:30:32.030Z,54.10
2019-04-30T01:33:02.351Z,51.03
2019-04-30T01:35:33.796Z,43.47
2019-04-30T01:38:08.476Z,52.90
2019-04-30T01:40:38.387Z,44.93
2019-04-30T01:43:09.807Z,45.57
2019-04-30T01:45:40.473Z,48.03
2019-04-30T01:48:12.665Z,48.80
2019-04-30T01:50:43.364Z,51.70
2019-04-30T01:53:13.667Z,48.23
2019-04-30T01:56:06.096Z,48.90
2019-04-30T01:58:53.371Z,50.03
2019-04-30T02:01:25.066Z,47.70
2019-04-30T02:03:55.384Z,49.43
2019-04-30T02:06:26.190Z,48.27
2019-04-30T02:08:56.501Z,46.43
2019-04-30T02:11:28.753Z,45.17
2019-04-30T02:13:59.173Z,46.10
2019-04-30T02:16:30.210Z,47.27
2019-04-30T02:19:00.790Z,43.00
2019-04-30T02:21:33.485Z,49.47
2019-04-30T02:24:04.213Z,43.27
2019-04-30T02:26:34.600Z,42.87
2019-04-30T02:29:05.077Z,42.63
2019-04-30T02:31:35.661Z,49.40
2019-04-30T02:34:15.715Z,45.13
2019-04-30T02:36:54.742Z,42.80
2019-04-30T02:39:25.433Z,50.90
2019-04-30T02:41:56.627Z,39.87
2019-04-30T02:44:29.334Z,41.93
2019-04-30T02:47:02.168Z,43.47
2019-04-30T02:49:33.545Z,45.93
2019-04-30T02:52:06.024Z,39.23
2019-04-30T02:54:39.601Z,41.53
2019-04-30T02:57:14.399Z,42.70
2019-04-30T03:00:02.358Z,46.30
2019-04-30T03:02:34.458Z,41.07
2019-04-30T03:05:06.398Z,39.03
2019-04-30T03:07:36.706Z,42.43
2019-04-30T03:10:10.027Z,46.77
2019-04-30T03:12:40.985Z,39.43
2019-04-30T03:15:11.329Z,38.87
2019-04-30T03:18:03.754Z,42.47
2019-04-30T03:20:53.205Z,38.70
2019-04-30T03:23:23.526Z,41.10
2019-04-30T03:25:53.878Z,40.67
2019-04-30T03:28:24.205Z,45.13
2019-04-30T03:30:57.910Z,40.83
2019-04-30T03:33:26.976Z,39.43
2019-04-30T03:36:01.847Z,40.27
2019-04-30T03:38:30.136Z,41.43
2019-04-30T03:41:00.702Z,46.77
2019-04-30T03:43:31.030Z,44.57
2019-04-30T03:46:02.702Z,45.27
2019-04-30T03:48:33.520Z,44.67
2019-04-30T03:51:03.927Z,46.73
2019-04-30T03:53:35.409Z,46.23
2019-04-30T03:56:05.877Z,44.27
2019-04-30T03:58:36.293Z,38.00
2019-04-30T04:01:15.696Z,48.23
2019-04-30T04:04:23.242Z,46.17
2019-04-30T04:07:05.639Z,37.77
2019-04-30T04:09:41.464Z,40.87
2019-04-30T04:12:22.177Z,40.17
2019-04-30T04:14:52.532Z,33.77
2019-04-30T04:17:23.245Z,41.87
2019-04-30T04:19:53.817Z,38.53
2019-04-30T04:22:24.560Z,36.33
2019-04-30T04:24:54.795Z,40.93
2019-04-30T04:27:25.392Z,37.77
2019-04-30T04:29:55.706Z,36.40
2019-04-30T04:32:26.135Z,36.30
2019-04-30T04:34:56.469Z,37.17
2019-04-30T04:37:29.461Z,38.47
2019-04-30T04:39:59.517Z,37.03
2019-04-30T04:42:32.999Z,40.17
2019-04-30T04:45:02.003Z,34.60
2019-04-30T04:47:32.288Z,37.97
2019-04-30T04:50:02.728Z,45.07
2019-04-30T04:52:33.065Z,37.63
2019-04-30T04:55:03.315Z,39.23
2019-04-30T04:57:33.666Z,38.47
2019-04-30T05:00:07.419Z,42.83
2019-04-30T05:02:42.964Z,40.17
2019-04-30T05:05:14.002Z,40.50
2019-04-30T05:07:44.398Z,37.97
2019-04-30T05:10:15.073Z,34.63
2019-04-30T05:12:45.349Z,34.83
2019-04-30T05:15:15.683Z,35.77
2019-04-30T05:17:46.337Z,38.73
2019-04-30T05:20:19.289Z,32.63
2019-04-30T05:22:49.860Z,34.40
2019-04-30T05:25:20.197Z,38.30
2019-04-30T05:27:50.474Z,37.10
2019-04-30T05:30:23.100Z,29.93
2019-04-30T05:32:53.340Z,34.40
2019-04-30T05:35:23.750Z,40.90
2019-04-30T05:37:53.990Z,36.97
2019-04-30T05:40:24.503Z,37.03
2019-04-30T05:42:54.856Z,34.90
2019-04-30T05:45:25.204Z,36.90
2019-04-30T05:47:55.668Z,35.50
2019-04-30T05:50:26.019Z,51.17
2019-04-30T05:52:59.097Z,35.47
2019-04-30T05:55:29.459Z,35.50
2019-04-30T05:58:01.455Z,35.90
2019-04-30T06:00:31.889Z,39.07
2019-04-30T06:03:02.610Z,42.23
2019-04-30T06:05:32.877Z,34.57
2019-04-30T06:08:03.678Z,39.43
2019-04-30T06:10:51.820Z,35.63
2019-04-30T06:13:28.631Z,44.07
2019-04-30T06:16:08.792Z,34.20
2019-04-30T06:18:39.276Z,31.70
2019-04-30T06:21:10.433Z,55.47
2019-04-30T06:23:41.263Z,33.73
2019-04-30T06:26:13.232Z,45.73
2019-04-30T06:28:44.934Z,26.77
2019-04-30T06:31:15.228Z,37.63
2019-04-30T06:33:45.874Z,35.77
2019-04-30T06:36:16.358Z,34.00
2019-04-30T06:38:46.562Z,42.20
2019-04-30T06:41:17.145Z,54.63
2019-04-30T06:43:48.935Z,29.97
2019-04-30T06:46:19.403Z,24.63
2019-04-30T06:48:51.374Z,23.47
2019-04-30T06:51:22.049Z,22.63
2019-04-30T06:53:52.945Z,22.27
2019-04-30T06:56:23.712Z,22.53
2019-04-30T06:58:53.896Z,25.23
2019-04-30T07:01:28.875Z,22.30
2019-04-30T07:04:00.940Z,21.97
2019-04-30T07:06:36.729Z,22.30
2019-04-30T07:09:21.152Z,20.97
2019-04-30T07:11:56.861Z,18.90
2019-04-30T07:14:29.169Z,21.27
2019-04-30T07:16:59.554Z,23.33
2019-04-30T07:19:38.123Z,22.87
2019-04-30T07:22:04.239Z,18.70
2019-04-30T07:24:34.706Z,19.80
2019-04-30T07:27:04.931Z,18.70
2019-04-30T07:29:35.410Z,19.63
2019-04-30T07:32:06.190Z,17.00
2019-04-30T07:34:37.154Z,21.80
2019-04-30T07:37:17.196Z,17.47
2019-04-30T07:39:41.601Z,19.90
2019-04-30T07:42:11.973Z,22.33
2019-04-30T07:44:42.425Z,18.30
2019-04-30T07:47:12.885Z,22.67
2019-04-30T07:49:49.721Z,15.97
2019-04-30T07:52:16.358Z,19.00
2019-04-30T07:54:51.578Z,16.70
2019-04-30T07:57:20.610Z,19.30
2019-04-30T07:59:50.930Z,20.90
2019-04-30T08:02:22.387Z,21.80
2019-04-30T08:04:59.852Z,20.27
2019-04-30T08:07:31.383Z,21.23
2019-04-30T08:10:01.679Z,16.73
2019-04-30T08:12:36.327Z,21.73
2019-04-30T08:15:04.235Z,19.00
2019-04-30T08:17:34.980Z,19.75
2019-04-30T08:20:06.225Z,22.45
2019-04-30T08:22:36.941Z,21.97
2019-04-30T08:25:07.338Z,19.17
2019-04-30T08:27:39.275Z,19.47
2019-04-30T08:30:21.451Z,45.30
2019-04-30T08:32:41.865Z,26.23
2019-04-30T08:35:12.229Z,33.33
2019-04-30T08:37:42.896Z,36.90
2019-04-30T08:40:13.409Z,46.42
2019-04-30T08:42:43.883Z,37.03
2019-04-30T08:45:14.823Z,22.47
2019-04-30T08:47:45.323Z,28.35
2019-04-30T08:50:15.943Z,18.80
2019-04-30T08:52:46.600Z,22.45
2019-04-30T08:55:19.344Z,19.73
2019-04-30T08:57:50.026Z,23.90
2019-04-30T09:00:21.349Z,28.97
2019-04-30T09:02:51.633Z,23.52
2019-04-30T09:05:39.915Z,21.48
2019-04-30T09:08:11.627Z,19.57
2019-04-30T09:10:41.935Z,16.77
2019-04-30T09:13:14.591Z,20.10
2019-04-30T09:15:44.889Z,17.48
2019-04-30T09:18:15.408Z,17.23
2019-04-30T09:20:45.656Z,18.77
2019-04-30T09:23:18.578Z,17.45
2019-04-30T09:25:49.670Z,12.50
2019-04-30T09:28:21.400Z,17.15
2019-04-30T09:30:51.707Z,18.40
2019-04-30T09:33:22.092Z,20.40
2019-04-30T09:35:52.395Z,16.93
2019-04-30T09:38:22.704Z,19.07
2019-04-30T09:40:53.015Z,13.83
2019-04-30T09:43:23.311Z,14.07
2019-04-30T09:45:53.604Z,14.87
2019-04-30T09:48:24.157Z,11.18
2019-04-30T09:50:54.672Z,19.05
2019-04-30T09:53:25.084Z,18.17
2019-04-30T09:55:55.470Z,18.40
2019-04-30T09:58:25.747Z,18.73
2019-04-30T10:00:55.907Z,19.70
2019-04-30T10:03:26.429Z,19.23
2019-04-30T10:05:58.941Z,17.73
2019-04-30T10:08:30.701Z,12.75
2019-04-30T10:11:38.178Z,15.75
2019-04-30T10:14:08.745Z,20.55
2019-04-30T10:17:03.983Z,16.97
2019-04-30T10:19:34.290Z,17.17
2019-04-30T10:22:04.846Z,16.67
2019-04-30T10:24:35.435Z,12.82
2019-04-30T10:27:10.755Z,15.25
2019-04-30T10:29:39.507Z,14.78
2019-04-30T10:32:11.312Z,19.20
2019-04-30T10:34:41.655Z,13.13
2019-04-30T10:37:13.290Z,15.25
2019-04-30T10:39:43.543Z,15.00
2019-04-30T10:42:13.933Z,18.02
2019-04-30T10:44:44.180Z,13.98
2019-04-30T10:47:14.554Z,15.55
2019-04-30T10:49:44.830Z,17.42
2019-04-30T10:52:15.125Z,16.27
2019-04-30T10:54:45.418Z,20.30
2019-04-30T10:57:16.082Z,15.88
2019-04-30T10:59:46.362Z,19.75
2019-04-30T11:02:16.602Z,17.10
2019-04-30T11:04:46.778Z,15.85
2019-04-30T11:07:18.618Z,21.07
2019-04-30T11:09:49.408Z,13.85
2019-04-30T11:12:20.032Z,20.85
2019-04-30T11:14:50.327Z,13.90
2019-04-30T11:17:21.011Z,12.55
2019-04-30T11:19:51.837Z,13.13
2019-04-30T11:22:22.478Z,25.57
2019-04-30T11:25:01.636Z,14.15
2019-04-30T11:27:25.128Z,13.85
2019-04-30T11:30:03.211Z,15.53
2019-04-30T11:32:29.610Z,16.00
2019-04-30T11:35:02.633Z,11.75
2019-04-30T11:37:35.005Z,16.35
2019-04-30T11:40:06.366Z,15.78
2019-04-30T11:42:38.422Z,15.90
2019-04-30T11:45:10.144Z,17.00
2019-04-30T11:47:40.491Z,22.60
2019-04-30T11:50:13.732Z,13.00
2019-04-30T11:52:44.494Z,16.75
2019-04-30T11:55:15.311Z,29.12
2019-04-30T11:57:45.765Z,18.48
2019-04-30T12:00:23.607Z,20.32
2019-04-30T12:02:54.350Z,14.65
2019-04-30T12:05:24.612Z,11.90
2019-04-30T12:08:10.673Z,22.07
2019-04-30T12:11:00.179Z,16.02
2019-04-30T12:13:32.089Z,10.68
2019-04-30T12:16:02.635Z,22.87
2019-04-30T12:18:33.157Z,12.25
2019-04-30T12:21:03.455Z,14.78
2019-04-30T12:23:34.180Z,13.32
2019-04-30T12:26:04.585Z,15.50
2019-04-30T12:28:34.893Z,16.73
2019-04-30T12:31:06.115Z,16.10
2019-04-30T12:33:38.859Z,16.75
2019-04-30T12:36:09.353Z,14.68
2019-04-30T12:38:40.451Z,15.65
2019-04-30T12:41:13.097Z,20.35
2019-04-30T12:43:43.429Z,12.53
2019-04-30T12:46:13.936Z,11.75
2019-04-30T12:49:05.935Z,14.03
2019-04-30T12:51:55.227Z,21.27
2019-04-30T12:54:31.607Z,18.65
2019-04-30T12:57:29.316Z,13.78
2019-04-30T13:00:00.451Z,16.32
2019-04-30T13:02:32.597Z,15.00
2019-04-30T13:05:02.923Z,14.95
2019-04-30T13:07:33.670Z,12.07
2019-04-30T13:10:05.442Z,18.75
2019-04-30T13:12:36.823Z,14.65
2019-04-30T13:15:10.176Z,18.82
2019-04-30T13:17:40.710Z,14.47
2019-04-30T13:20:18.671Z,13.55
2019-04-30T13:22:44.356Z,11.90
2019-04-30T13:25:27.528Z,16.20
2019-04-30T13:27:50.542Z,15.95
2019-04-30T13:30:25.408Z,14.40
2019-04-30T13:33:23.602Z,15.72
2019-04-30T13:35:54.114Z,14.10
2019-04-30T13:38:44.936Z,12.60
2019-04-30T13:41:14.881Z,11.70
2019-04-30T13:44:02.324Z,12.68
2019-04-30T13:46:33.710Z,14.25
2019-04-30T13:49:06.331Z,17.10
2019-04-30T13:51:36.616Z,14.35
2019-04-30T13:54:09.834Z,14.13
2019-04-30T13:56:44.230Z,12.33
2019-04-30T13:59:14.895Z,11.10
2019-04-30T14:01:48.791Z,14.68
2019-04-30T14:04:42.997Z,15.35
2019-04-30T14:07:32.300Z,15.45
2019-04-30T14:10:03.578Z,13.25
2019-04-30T14:12:35.978Z,14.18
2019-04-30T14:15:09.402Z,14.47
2019-04-30T14:17:40.174Z,17.37
2019-04-30T14:20:11.364Z,13.58
2019-04-30T14:22:43.116Z,14.55
2019-04-30T14:25:14.300Z,14.75
2019-04-30T14:27:51.842Z,14.38
2019-04-30T14:30:19.105Z,12.10
2019-04-30T14:32:50.857Z,18.27
2019-04-30T14:35:21.134Z,16.95
2019-04-30T14:37:51.470Z,17.90
2019-04-30T14:40:22.276Z,16.45
2019-04-30T14:43:04.260Z,14.78
2019-04-30T14:45:43.078Z,13.83
2019-04-30T14:48:22.993Z,16.77
2019-04-30T14:50:52.196Z,16.95
2019-04-30T14:53:41.446Z,14.15
2019-04-30T14:56:30.682Z,17.43
2019-04-30T14:59:21.444Z,12.98
2019-04-30T15:01:59.438Z,15.45
2019-04-30T15:04:29.644Z,17.42
2019-04-30T15:06:59.882Z,12.75
2019-04-30T15:09:30.669Z,16.17
2019-04-30T15:12:01.084Z,22.70
2019-04-30T15:14:32.322Z,13.40
2019-04-30T15:17:02.716Z,12.88
2019-04-30T15:19:36.146Z,10.98
2019-04-30T15:22:06.405Z,10.78
2019-04-30T15:24:39.291Z,11.25
2019-04-30T15:27:09.954Z,18.23
2019-04-30T15:29:40.224Z,12.30
2019-04-30T15:32:10.778Z,15.30
2019-04-30T15:34:42.459Z,16.15
2019-04-30T15:37:19.079Z,14.85
2019-04-30T15:39:46.644Z,20.50
2019-04-30T15:42:18.322Z,12.55
2019-04-30T15:44:49.763Z,13.55
2019-04-30T15:47:21.808Z,14.40
2019-04-30T15:49:52.193Z,10.95
2019-04-30T15:52:22.492Z,13.20
2019-04-30T15:54:53.115Z,20.50
2019-04-30T15:57:23.471Z,15.93
2019-04-30T15:59:54.514Z,14.15
2019-04-30T16:02:34.811Z,13.40
2019-04-30T16:05:36.737Z,12.93
2019-04-30T16:08:29.184Z,13.88
2019-04-30T16:11:30.689Z,13.88
2019-04-30T16:14:09.107Z,14.45
2019-04-30T16:16:41.301Z,16.27
2019-04-30T16:19:12.277Z,12.98
2019-04-30T16:21:42.637Z,20.97
2019-04-30T16:24:13.115Z,13.40
2019-04-30T16:26:49.423Z,13.05
2019-04-30T16:29:16.241Z,11.80
2019-04-30T16:31:46.647Z,11.30
2019-04-30T16:34:17.321Z,13.78
2019-04-30T16:36:49.224Z,12.65
2019-04-30T16:39:21.427Z,13.43
2019-04-30T16:41:51.704Z,14.38
2019-04-30T16:44:22.230Z,18.52
2019-04-30T16:46:53.341Z,42.73
2019-04-30T16:49:23.599Z,59.77
2019-04-30T16:51:54.147Z,69.17
2019-04-30T16:54:25.263Z,27.62
2019-04-30T16:57:05.943Z,19.92
2019-04-30T16:59:35.173Z,16.52
2019-04-30T17:02:05.899Z,17.70
2019-04-30T17:04:45.237Z,18.27
2019-04-30T17:07:33.565Z,13.13
2019-04-30T17:10:26.085Z,17.85
2019-04-30T17:13:13.918Z,15.08
2019-04-30T17:15:44.725Z,12.75
2019-04-30T17:18:15.291Z,16.40
2019-04-30T17:20:45.820Z,15.53
2019-04-30T17:23:16.092Z,17.73
2019-04-30T17:25:46.571Z,21.65
2019-04-30T17:28:18.684Z,17.32
2019-04-30T17:30:49.236Z,18.70
2019-04-30T17:33:20.563Z,18.75
2019-04-30T17:35:50.899Z,13.62
2019-04-30T17:38:21.319Z,16.15
2019-04-30T17:40:51.597Z,20.47
2019-04-30T17:43:24.306Z,17.12
2019-04-30T17:45:54.065Z,20.32
2019-04-30T17:48:24.559Z,24.98
2019-04-30T17:50:55.222Z,14.73
2019-04-30T17:53:25.721Z,21.37
2019-04-30T17:55:56.072Z,18.05
2019-04-30T17:58:26.479Z,15.43
2019-04-30T18:00:59.793Z,22.22
2019-04-30T18:03:30.579Z,20.80
2019-04-30T18:06:01.142Z,24.23
2019-04-30T18:08:31.659Z,20.50
2019-04-30T18:11:02.185Z,25.43
2019-04-30T18:13:32.531Z,18.48
2019-04-30T18:16:02.947Z,18.57
2019-04-30T18:18:59.125Z,24.70
2019-04-30T18:21:40.158Z,24.95
2019-04-30T18:24:21.531Z,17.87
2019-04-30T18:27:02.504Z,21.60
2019-04-30T18:29:32.878Z,17.07
2019-04-30T18:32:03.610Z,18.37
2019-04-30T18:34:34.034Z,19.20
2019-04-30T18:37:04.621Z,21.80
2019-04-30T18:39:35.358Z,22.30
2019-04-30T18:42:05.770Z,19.17
2019-04-30T18:44:36.094Z,19.87
2019-04-30T18:47:06.429Z,25.13
2019-04-30T18:49:39.378Z,20.33
2019-04-30T18:52:09.608Z,21.13
2019-04-30T18:54:40.146Z,20.60
2019-04-30T18:57:10.905Z,24.33
2019-04-30T18:59:41.261Z,27.67
2019-04-30T19:02:13.618Z,23.90
2019-04-30T19:04:45.130Z,29.87
2019-04-30T19:07:23.488Z,29.93
2019-04-30T19:10:03.942Z,28.53
2019-04-30T19:12:59.156Z,22.93
2019-04-30T19:16:14.716Z,24.20
2019-04-30T19:18:45.002Z,24.63
2019-04-30T19:21:15.826Z,23.07
2019-04-30T19:23:48.610Z,25.40
2019-04-30T19:26:19.027Z,20.93
2019-04-30T19:28:50.654Z,25.43
2019-04-30T19:31:20.959Z,27.10
2019-04-30T19:33:51.258Z,23.10
2019-04-30T19:36:33.916Z,26.57
2019-04-30T19:38:56.111Z,19.80
2019-04-30T19:41:28.684Z,22.37
2019-04-30T19:43:58.650Z,22.57
2019-04-30T19:46:30.931Z,21.37
2019-04-30T19:49:01.645Z,22.80
2019-04-30T19:51:32.062Z,26.00
2019-04-30T19:54:02.326Z,25.33
2019-04-30T19:56:33.253Z,23.73
2019-04-30T19:59:05.606Z,22.13
2019-04-30T20:01:36.452Z,20.53
2019-04-30T20:04:09.850Z,22.63
2019-04-30T20:06:40.447Z,24.03
2019-04-30T20:09:11.327Z,23.77
2019-04-30T20:11:45.073Z,26.07
2019-04-30T20:14:15.965Z,23.17
2019-04-30T20:16:46.333Z,26.33
2019-04-30T20:19:16.611Z,19.73
2019-04-30T20:21:51.374Z,24.10
2019-04-30T20:24:21.068Z,24.93
2019-04-30T20:26:58.281Z,31.33
2019-04-30T20:29:23.217Z,21.20
2019-04-30T20:31:53.591Z,25.77
2019-04-30T20:34:23.825Z,21.73
2019-04-30T20:36:54.196Z,21.13
2019-04-30T20:39:42.173Z,29.47
2019-04-30T20:42:12.501Z,22.43
2019-04-30T20:44:42.896Z,30.60
2019-04-30T20:47:13.266Z,21.63
2019-04-30T20:49:43.523Z,30.43
2019-04-30T20:52:13.948Z,23.87
2019-04-30T20:54:44.235Z,25.13
2019-04-30T20:57:14.903Z,24.00
2019-04-30T20:59:45.170Z,27.17
2019-04-30T21:02:18.568Z,25.37
2019-04-30T21:04:47.746Z,30.17
2019-04-30T21:07:19.503Z,36.37
2019-04-30T21:09:50.119Z,30.93
2019-04-30T21:12:21.459Z,35.37
2019-04-30T21:14:51.854Z,34.53
2019-04-30T21:17:22.310Z,40.63
2019-04-30T21:19:52.578Z,39.80
2019-04-30T21:22:23.491Z,30.93
2019-04-30T21:24:53.755Z,35.20
2019-04-30T21:27:24.340Z,28.73
2019-04-30T21:29:54.621Z,28.20
2019-04-30T21:32:48.158Z,25.37
2019-04-30T21:35:36.460Z,29.23
2019-04-30T21:38:09.283Z,30.40
2019-04-30T21:40:39.470Z,31.20
2019-04-30T21:43:10.230Z,30.97
2019-04-30T21:45:40.505Z,41.60
2019-04-30T21:48:10.702Z,27.73
2019-04-30T21:50:41.239Z,33.13
2019-04-30T21:53:11.486Z,32.20
2019-04-30T21:55:41.688Z,30.17
2019-04-30T21:58:11.942Z,26.63
2019-04-30T22:01:00.456Z,27.27
2019-04-30T22:03:32.322Z,33.03
2019-04-30T22:06:02.798Z,30.97
2019-04-30T22:08:33.088Z,35.67
2019-04-30T22:11:03.616Z,33.30
2019-04-30T22:13:33.934Z,37.03
2019-04-30T22:16:04.570Z,35.97
2019-04-30T22:18:34.832Z,36.97
2019-04-30T22:21:05.231Z,34.83
2019-04-30T22:23:36.499Z,37.27
2019-04-30T22:26:06.894Z,30.93
2019-04-30T22:28:39.135Z,34.47
2019-04-30T22:31:09.146Z,25.67
2019-04-30T22:33:39.731Z,36.90
2019-04-30T22:36:29.141Z,31.17
2019-04-30T22:39:19.844Z,36.60
2019-04-30T22:41:49.676Z,29.93
2019-04-30T22:44:20.667Z,39.13
2019-04-30T22:46:50.914Z,29.40
2019-04-30T22:49:21.746Z,28.67
2019-04-30T22:51:52.103Z,38.67
2019-04-30T22:54:22.533Z,28.90
2019-04-30T22:56:52.791Z,38.97
2019-04-30T22:59:23.091Z,30.43
2019-04-30T23:02:18.680Z,38.90
2019-04-30T23:04:49.014Z,34.90
2019-04-30T23:07:19.821Z,32.40
2019-04-30T23:09:50.121Z,33.63
2019-04-30T23:12:20.509Z,34.57
2019-04-30T23:14:50.810Z,33.07
2019-04-30T23:17:21.206Z,35.37
2019-04-30T23:19:51.624Z,38.93
2019-04-30T23:22:22.081Z,30.57
2019-04-30T23:24:52.349Z,32.53
2019-04-30T23:27:22.712Z,31.20
2019-04-30T23:30:02.814Z,29.53
2019-04-30T23:32:24.886Z,35.90
2019-04-30T23:34:55.446Z,34.30
2019-04-30T23:37:25.743Z,37.80
2019-04-30T23:39:56.298Z,35.17
2019-04-30T23:42:26.599Z,42.27
2019-04-30T23:44:56.944Z,35.97
2019-04-30T23:47:27.308Z,39.67
2019-04-30T23:49:57.659Z,40.30
2019-04-30T23:52:27.929Z,42.37
2019-04-30T23:54:58.301Z,42.07
2019-04-30T23:57:28.558Z,37.07
2019-04-30T23:59:58.993Z,33.57
